createdAt,value
2018-09-06T00:02:35.678Z,99.99
2018-09-06T00:05:35.625Z,99.99
2018-09-06T00:08:36.565Z,99.99
2018-09-06T00:11:35.547Z,99.99
2018-09-06T00:14:35.508Z,99.99
2018-09-06T00:17:35.497Z,99.99
2018-09-06T00:20:35.454Z,99.99
2018-09-06T00:23:35.422Z,99.99
2018-09-06T00:26:35.377Z,99.99
2018-09-06T00:29:35.339Z,99.99
2018-09-06T00:32:35.299Z,99.99
2018-09-06T00:35:35.284Z,99.99
2018-09-06T00:38:35.252Z,99.99
2018-09-06T00:41:35.216Z,99.99
2018-09-06T00:44:35.163Z,99.99
2018-09-06T00:47:35.161Z,99.99
2018-09-06T00:50:35.089Z,99.99
2018-09-06T00:53:35.069Z,99.99
2018-09-06T00:56:35.049Z,99.99
2018-09-06T00:59:35.057Z,99.99
2018-09-06T01:02:34.961Z,99.99
2018-09-06T01:05:34.997Z,99.99
2018-09-06T01:08:34.899Z,99.99
2018-09-06T01:11:34.917Z,99.99
2018-09-06T01:14:34.839Z,99.99
2018-09-06T01:17:34.819Z,99.99
2018-09-06T01:20:34.766Z,99.99
2018-09-06T01:23:34.745Z,99.99
2018-09-06T01:26:34.809Z,99.99
2018-09-06T01:29:34.678Z,99.99
2018-09-06T01:32:34.661Z,99.99
2018-09-06T01:35:34.608Z,99.99
2018-09-06T01:38:34.667Z,99.99
2018-09-06T01:41:34.531Z,99.99
2018-09-06T01:44:34.517Z,99.99
2018-09-06T01:47:34.479Z,99.99
2018-09-06T01:50:34.438Z,99.99
2018-09-06T01:53:34.406Z,99.99
2018-09-06T01:56:34.368Z,99.99
2018-09-06T01:59:34.358Z,99.99
2018-09-06T02:02:34.295Z,99.99
2018-09-06T02:05:34.286Z,99.99
2018-09-06T02:08:34.244Z,99.99
2018-09-06T02:11:34.224Z,99.99
2018-09-06T02:14:34.170Z,99.99
2018-09-06T02:17:34.127Z,99.99
2018-09-06T02:20:34.103Z,99.99
2018-09-06T02:23:34.075Z,99.99
2018-09-06T02:26:34.542Z,99.99
2018-09-06T02:29:34.013Z,99.99
2018-09-06T02:32:33.970Z,99.99
2018-09-06T02:35:33.932Z,99.99
2018-09-06T02:38:33.888Z,99.99
2018-09-06T02:41:33.861Z,99.99
2018-09-06T02:44:33.850Z,99.99
2018-09-06T02:47:33.805Z,99.99
2018-09-06T02:50:33.766Z,99.99
2018-09-06T02:53:33.729Z,99.99
2018-09-06T02:56:33.679Z,99.99
2018-09-06T02:59:33.696Z,99.99
2018-09-06T03:02:33.627Z,99.99
2018-09-06T03:05:33.620Z,99.99
2018-09-06T03:08:33.550Z,99.99
2018-09-06T03:11:33.531Z,99.99
2018-09-06T03:14:33.483Z,99.99
2018-09-06T03:17:33.482Z,99.99
2018-09-06T03:20:33.420Z,99.99
2018-09-06T03:23:33.411Z,99.99
2018-09-06T03:26:33.351Z,99.99
2018-09-06T03:29:33.343Z,99.99
2018-09-06T03:32:33.306Z,99.99
2018-09-06T03:35:33.278Z,99.99
2018-09-06T03:38:33.226Z,99.99
2018-09-06T03:41:33.215Z,99.99
2018-09-06T03:44:33.151Z,99.99
2018-09-06T03:47:33.139Z,99.99
2018-09-06T03:50:33.092Z,99.99
2018-09-06T03:53:33.075Z,99.99
2018-09-06T03:56:33.083Z,99.99
2018-09-06T03:59:33.003Z,99.99
2018-09-06T04:02:32.940Z,99.99
2018-09-06T04:05:32.936Z,99.99
2018-09-06T04:08:32.888Z,99.99
2018-09-06T04:11:32.853Z,99.99
2018-09-06T04:14:32.816Z,99.99
2018-09-06T04:17:32.820Z,99.99
2018-09-06T04:20:32.745Z,99.99
2018-09-06T04:23:32.739Z,99.99
2018-09-06T04:26:32.793Z,99.99
2018-09-06T04:29:32.670Z,99.99
2018-09-06T04:32:32.611Z,99.99
2018-09-06T04:35:32.695Z,99.99
2018-09-06T04:38:32.542Z,99.99
2018-09-06T04:41:32.558Z,99.99
2018-09-06T04:44:32.480Z,99.99
2018-09-06T04:47:32.451Z,99.99
2018-09-06T04:50:32.433Z,99.99
2018-09-06T04:53:32.406Z,99.99
2018-09-06T04:56:32.345Z,99.99
2018-09-06T04:59:32.353Z,99.99
2018-09-06T05:02:33.026Z,99.99
2018-09-06T05:05:32.279Z,99.99
2018-09-06T05:08:32.207Z,99.99
2018-09-06T05:11:32.209Z,99.99
2018-09-06T05:14:32.147Z,99.99
2018-09-06T05:17:32.136Z,99.99
2018-09-06T05:20:32.073Z,99.99
2018-09-06T05:23:32.086Z,99.99
2018-09-06T05:26:32.060Z,99.99
2018-09-06T05:29:31.989Z,99.99
2018-09-06T05:32:32.528Z,99.99
2018-09-06T05:35:31.942Z,99.99
2018-09-06T05:38:31.881Z,99.99
2018-09-06T05:41:31.860Z,99.99
2018-09-06T05:44:31.806Z,99.99
2018-09-06T05:47:31.898Z,99.99
2018-09-06T05:50:31.743Z,99.99
2018-09-06T05:53:31.862Z,99.99
2018-09-06T05:56:31.669Z,99.99
2018-09-06T05:59:31.696Z,99.99
2018-09-06T06:02:31.612Z,99.99
2018-09-06T06:05:31.600Z,99.99
2018-09-06T06:08:31.533Z,99.99
2018-09-06T06:11:31.554Z,99.99
2018-09-06T06:14:31.480Z,99.99
2018-09-06T06:17:31.447Z,99.99
2018-09-06T06:20:31.454Z,99.99
2018-09-06T06:23:31.388Z,99.99
2018-09-06T06:26:31.345Z,99.99
2018-09-06T06:29:31.322Z,99.99
2018-09-06T06:32:31.284Z,99.99
2018-09-06T06:35:31.440Z,99.99
2018-09-06T06:38:31.236Z,99.99
2018-09-06T06:41:31.196Z,99.99
2018-09-06T06:44:31.166Z,99.99
2018-09-06T06:47:31.765Z,99.99
2018-09-06T06:50:31.118Z,99.99
2018-09-06T06:53:31.047Z,99.99
2018-09-06T06:56:31.015Z,99.99
2018-09-06T06:59:30.994Z,99.99
2018-09-06T07:02:30.942Z,99.99
2018-09-06T07:05:30.915Z,99.99
2018-09-06T07:08:30.877Z,99.99
2018-09-06T07:11:30.868Z,99.99
2018-09-06T07:14:30.812Z,99.99
2018-09-06T07:17:30.785Z,99.99
2018-09-06T07:20:30.735Z,99.99
2018-09-06T07:23:30.710Z,99.99
2018-09-06T07:26:30.933Z,99.99
2018-09-06T07:29:30.729Z,99.99
2018-09-06T07:32:30.596Z,99.99
2018-09-06T07:35:30.612Z,99.99
2018-09-06T07:38:30.560Z,99.99
2018-09-06T07:41:30.599Z,99.99
2018-09-06T07:44:30.516Z,99.99
2018-09-06T07:47:30.494Z,99.99
2018-09-06T07:50:30.421Z,99.99
2018-09-06T07:53:30.427Z,99.99
2018-09-06T07:56:30.439Z,99.99
2018-09-06T07:59:30.330Z,99.99
2018-09-06T08:02:30.275Z,99.99
2018-09-06T08:05:30.253Z,99.99
2018-09-06T08:08:30.220Z,99.99
2018-09-06T08:11:30.195Z,99.99
2018-09-06T08:14:30.140Z,99.99
2018-09-06T08:17:30.134Z,99.99
2018-09-06T08:20:30.064Z,99.99
2018-09-06T08:23:30.051Z,99.99
2018-09-06T08:26:30.001Z,99.99
2018-09-06T08:29:29.997Z,99.99
2018-09-06T08:32:29.957Z,99.99
2018-09-06T08:35:29.936Z,99.99
2018-09-06T08:38:29.870Z,99.99
2018-09-06T08:41:29.858Z,99.99
2018-09-06T08:44:29.831Z,99.99
2018-09-06T08:47:30.974Z,99.99
2018-09-06T08:50:29.757Z,99.99
2018-09-06T08:53:29.713Z,99.99
2018-09-06T08:56:29.668Z,99.99
2018-09-06T08:59:29.673Z,99.99
2018-09-06T09:02:29.703Z,99.99
2018-09-06T09:05:29.589Z,99.99
2018-09-06T09:08:29.564Z,99.99
2018-09-06T09:11:29.737Z,99.99
2018-09-06T09:14:29.465Z,99.99
2018-09-06T09:17:29.495Z,99.99
2018-09-06T09:20:29.419Z,99.99
2018-09-06T09:23:29.413Z,99.99
2018-09-06T09:26:29.343Z,99.99
2018-09-06T09:29:29.308Z,99.99
2018-09-06T09:32:29.315Z,99.99
2018-09-06T09:35:29.255Z,99.99
2018-09-06T09:38:29.220Z,99.99
2018-09-06T09:41:29.204Z,99.99
2018-09-06T09:44:29.132Z,99.99
2018-09-06T09:47:57.930Z,99.99
2018-09-06T09:50:57.887Z,99.99
2018-09-06T09:53:57.888Z,99.99
2018-09-06T09:56:59.628Z,99.99
2018-09-06T09:59:57.785Z,99.99
2018-09-06T10:02:57.739Z,99.99
2018-09-06T10:05:58.749Z,99.50
2018-09-06T10:08:57.697Z,99.30
2018-09-06T10:11:57.671Z,98.94
2018-09-06T10:14:57.649Z,97.89
2018-09-06T10:17:57.661Z,96.60
2018-09-06T10:20:57.549Z,92.50
2018-09-06T10:23:57.561Z,92.38
2018-09-06T10:26:57.475Z,93.93
2018-09-06T10:29:57.467Z,93.09
2018-09-06T10:32:57.433Z,94.25
2018-09-06T10:35:57.399Z,89.89
2018-09-06T10:38:57.354Z,91.39
2018-09-06T10:41:57.336Z,91.50
2018-09-06T10:44:57.288Z,90.75
2018-09-06T10:47:57.344Z,90.89
2018-09-06T10:50:57.218Z,92.49
2018-09-06T10:53:57.200Z,93.63
2018-09-06T10:56:57.152Z,91.89
2018-09-06T10:59:57.131Z,89.00
2018-09-06T11:02:57.083Z,85.75
2018-09-06T11:05:57.164Z,86.66
2018-09-06T11:08:57.023Z,86.32
2018-09-06T11:11:57.010Z,85.71
2018-09-06T11:14:56.958Z,86.32
2018-09-06T11:17:56.992Z,84.51
2018-09-06T11:20:56.953Z,82.73
2018-09-06T11:23:56.893Z,79.88
2018-09-06T11:26:56.825Z,79.70
2018-09-06T11:29:56.816Z,74.90
2018-09-06T11:32:56.763Z,72.41
2018-09-06T11:35:56.766Z,68.04
2018-09-06T11:38:56.709Z,71.01
2018-09-06T11:41:56.717Z,72.11
2018-09-06T11:44:56.657Z,74.48
2018-09-06T11:47:56.696Z,75.54
2018-09-06T11:50:56.599Z,75.41
2018-09-06T11:53:56.588Z,74.64
2018-09-06T11:56:56.515Z,71.84
2018-09-06T11:59:56.524Z,72.74
2018-09-06T12:02:56.467Z,73.55
2018-09-06T12:05:56.436Z,73.31
2018-09-06T12:08:56.376Z,71.58
2018-09-06T12:11:56.406Z,70.12
2018-09-06T12:14:56.316Z,71.25
2018-09-06T12:17:56.342Z,73.85
2018-09-06T12:20:56.249Z,74.41
2018-09-06T12:23:56.270Z,75.72
2018-09-06T12:26:56.186Z,78.36
2018-09-06T12:29:56.194Z,78.59
2018-09-06T12:32:56.139Z,79.63
2018-09-06T12:35:56.101Z,80.43
2018-09-06T12:38:56.091Z,79.79
2018-09-06T12:41:56.051Z,75.72
2018-09-06T12:44:56.102Z,74.51
2018-09-06T12:47:55.968Z,72.41
2018-09-06T12:50:55.932Z,73.52
2018-09-06T12:53:55.912Z,67.77
2018-09-06T12:56:55.871Z,68.40
2018-09-06T12:59:55.868Z,69.79
2018-09-06T13:02:55.809Z,72.61
2018-09-06T13:05:55.790Z,73.11
2018-09-06T13:08:55.741Z,76.12
2018-09-06T13:11:55.737Z,78.66
2018-09-06T13:14:56.647Z,81.43
2018-09-06T13:17:55.675Z,83.35
2018-09-06T13:20:55.650Z,85.75
2018-09-06T13:23:55.585Z,82.95
2018-09-06T13:26:55.773Z,83.71
2018-09-06T13:29:55.524Z,80.63
2018-09-06T13:32:55.458Z,79.43
2018-09-06T13:35:55.452Z,78.89
2018-09-06T13:38:55.409Z,77.75
2018-09-06T13:41:55.385Z,74.85
2018-09-06T13:44:55.352Z,72.02
2018-09-06T13:47:55.355Z,73.02
2018-09-06T13:50:55.260Z,72.81
2018-09-06T13:53:55.327Z,71.55
2018-09-06T13:56:55.241Z,69.99
2018-09-06T13:59:55.299Z,68.73
2018-09-06T14:02:55.124Z,66.67
2018-09-06T14:05:55.261Z,68.23
2018-09-06T14:08:55.076Z,68.27
2018-09-06T14:11:55.040Z,67.93
2018-09-06T14:14:54.992Z,64.09
2018-09-06T14:17:55.026Z,62.85
2018-09-06T14:20:54.939Z,62.18
2018-09-06T14:23:54.942Z,64.36
2018-09-06T14:26:54.862Z,64.39
2018-09-06T14:29:54.905Z,63.86
2018-09-06T14:32:54.928Z,67.14
2018-09-06T14:35:54.794Z,68.23
2018-09-06T14:38:54.782Z,71.22
2018-09-06T14:41:54.787Z,72.99
2018-09-06T14:44:54.707Z,73.62
2018-09-06T14:47:54.677Z,83.47
2018-09-06T14:50:54.673Z,90.59
2018-09-06T14:53:54.666Z,92.54
2018-09-06T14:56:54.576Z,91.44
2018-09-06T14:59:54.665Z,91.88
2018-09-06T15:02:54.498Z,88.31
2018-09-06T15:05:54.452Z,90.50
2018-09-06T15:08:54.419Z,95.62
2018-09-06T15:11:54.381Z,97.69
2018-09-06T15:14:54.346Z,96.52
2018-09-06T15:17:54.321Z,96.77
2018-09-06T15:20:54.262Z,96.77
2018-09-06T15:23:55.140Z,97.18
2018-09-06T15:26:54.207Z,96.44
2018-09-06T15:29:54.185Z,93.86
2018-09-06T15:32:54.128Z,88.10
2018-09-06T15:35:54.142Z,91.89
2018-09-06T15:38:54.064Z,89.52
2018-09-06T15:41:54.040Z,88.06
2018-09-06T15:44:54.015Z,83.15
2018-09-06T15:47:53.991Z,83.29
2018-09-06T15:50:53.940Z,82.06
2018-09-06T15:53:54.007Z,82.01
2018-09-06T15:56:53.868Z,84.91
2018-09-06T15:59:53.870Z,87.58
2018-09-06T16:02:53.797Z,89.29
2018-09-06T16:05:53.773Z,90.44
2018-09-06T16:08:53.765Z,90.13
2018-09-06T16:11:53.748Z,89.13
2018-09-06T16:14:53.711Z,87.42
2018-09-06T16:17:53.688Z,86.12
2018-09-06T16:20:53.683Z,87.12
2018-09-06T16:23:53.629Z,84.83
2018-09-06T16:26:53.585Z,82.37
2018-09-06T16:29:53.518Z,84.57
2018-09-06T16:32:53.468Z,80.91
2018-09-06T16:35:53.524Z,81.07
2018-09-06T16:38:53.396Z,83.89
2018-09-06T16:41:53.404Z,85.68
2018-09-06T16:44:53.325Z,88.47
2018-09-06T16:47:53.299Z,91.02
2018-09-06T16:50:53.292Z,90.16
2018-09-06T16:53:53.267Z,90.86
2018-09-06T16:56:53.186Z,92.52
2018-09-06T16:59:53.185Z,92.41
2018-09-06T17:02:53.148Z,92.27
2018-09-06T17:05:53.110Z,90.78
2018-09-06T17:08:53.063Z,89.43
2018-09-06T17:11:54.646Z,88.99
2018-09-06T17:14:52.991Z,88.79
2018-09-06T17:17:52.996Z,89.14
2018-09-06T17:20:52.930Z,88.24
2018-09-06T17:23:53.151Z,90.64
2018-09-06T17:26:52.852Z,92.37
2018-09-06T17:29:52.854Z,93.73
2018-09-06T17:32:52.919Z,94.73
2018-09-06T17:35:52.771Z,94.02
2018-09-06T17:38:52.751Z,94.43
2018-09-06T17:41:52.706Z,94.27
2018-09-06T17:44:52.654Z,95.07
2018-09-06T17:47:52.622Z,95.68
2018-09-06T17:50:52.581Z,95.73
2018-09-06T17:53:52.614Z,94.98
2018-09-06T17:56:52.531Z,94.78
2018-09-06T17:59:52.512Z,94.62
2018-09-06T18:02:52.468Z,94.12
2018-09-06T18:05:52.433Z,94.12
2018-09-06T18:08:52.376Z,92.91
2018-09-06T18:11:52.355Z,92.95
2018-09-06T18:14:52.314Z,92.19
2018-09-06T18:17:52.414Z,92.79
2018-09-06T18:20:52.267Z,92.29
2018-09-06T18:23:52.219Z,92.33
2018-09-06T18:26:52.168Z,91.93
2018-09-06T18:29:52.144Z,91.77
2018-09-06T18:32:52.131Z,90.66
2018-09-06T18:35:52.078Z,90.56
2018-09-06T18:38:52.089Z,90.70
2018-09-06T18:41:52.034Z,90.70
2018-09-06T18:44:51.984Z,91.76
2018-09-06T18:47:52.176Z,90.34
2018-09-06T18:50:51.907Z,91.25
2018-09-06T18:53:51.879Z,91.66
2018-09-06T18:56:51.840Z,93.01
2018-09-06T18:59:51.809Z,92.85
2018-09-06T19:02:51.824Z,93.52
2018-09-06T19:05:51.743Z,93.36
2018-09-06T19:08:51.713Z,93.16
2018-09-06T19:11:51.689Z,94.17
2018-09-06T19:14:51.628Z,94.57
2018-09-06T19:17:51.625Z,93.76
2018-09-06T19:20:51.569Z,93.41
2018-09-06T19:23:51.568Z,93.12
2018-09-06T19:26:51.523Z,94.43
2018-09-06T19:29:51.471Z,94.32
2018-09-06T19:32:51.439Z,94.87
2018-09-06T19:35:51.419Z,94.87
2018-09-06T19:38:51.372Z,94.78
2018-09-06T19:41:51.352Z,95.32
2018-09-06T19:44:51.306Z,95.93
2018-09-06T19:47:51.268Z,96.48
2018-09-06T19:50:51.228Z,96.98
2018-09-06T19:53:51.231Z,97.69
2018-09-06T19:56:51.159Z,97.09
2018-09-06T19:59:51.146Z,98.65
2018-09-06T20:02:51.126Z,98.25
2018-09-06T20:05:51.089Z,98.45
2018-09-06T20:08:51.057Z,99.21
2018-09-06T20:11:51.006Z,99.30
2018-09-06T20:14:50.985Z,99.30
2018-09-06T20:17:50.950Z,99.99
2018-09-06T20:20:50.965Z,99.99
2018-09-06T20:23:50.869Z,99.99
2018-09-06T20:26:50.830Z,99.99
2018-09-06T20:29:50.810Z,99.99
2018-09-06T20:32:50.753Z,99.30
2018-09-06T20:35:50.743Z,99.46
2018-09-06T20:38:50.727Z,98.85
2018-09-06T20:41:50.740Z,98.50
2018-09-06T20:44:50.621Z,98.40
2018-09-06T20:47:50.618Z,98.71
2018-09-06T20:50:50.602Z,98.10
2018-09-06T20:53:50.547Z,99.05
2018-09-06T20:56:50.501Z,99.16
2018-09-06T20:59:50.466Z,99.99
2018-09-06T21:02:50.424Z,99.97
2018-09-06T21:05:50.424Z,99.16
2018-09-06T21:08:50.385Z,98.71
2018-09-06T21:11:50.354Z,98.61
2018-09-06T21:14:50.302Z,97.90
2018-09-06T21:17:50.263Z,98.50
2018-09-06T21:20:50.229Z,98.46
2018-09-06T21:23:50.209Z,97.85
2018-09-06T21:26:50.159Z,98.46
2018-09-06T21:29:50.149Z,97.90
2018-09-06T21:32:50.092Z,98.10
2018-09-06T21:35:50.089Z,96.94
2018-09-06T21:38:50.048Z,97.55
2018-09-06T21:41:50.028Z,97.25
2018-09-06T21:44:49.957Z,97.05
2018-09-06T21:47:49.933Z,96.74
2018-09-06T21:50:49.885Z,97.49
2018-09-06T21:53:49.874Z,96.58
2018-09-06T21:56:49.828Z,96.73
2018-09-06T21:59:49.818Z,96.22
2018-09-06T22:02:49.755Z,97.03
2018-09-06T22:05:49.736Z,97.38
2018-09-06T22:08:49.700Z,98.54
2018-09-06T22:11:49.663Z,98.54
2018-09-06T22:14:49.626Z,99.30
2018-09-06T22:17:49.592Z,99.80
2018-09-06T22:20:49.581Z,99.99
2018-09-06T22:23:49.536Z,99.99
2018-09-06T22:26:49.497Z,99.99
2018-09-06T22:29:49.468Z,99.99
2018-09-06T22:32:49.452Z,99.99
2018-09-06T22:35:49.402Z,99.99
2018-09-06T22:38:49.359Z,99.99
2018-09-06T22:41:49.337Z,99.99
2018-09-06T22:44:49.279Z,99.99
2018-09-06T22:47:49.268Z,99.99
2018-09-06T22:50:49.231Z,99.99
2018-09-06T22:53:49.200Z,99.99
2018-09-06T22:56:50.110Z,99.99
2018-09-06T22:59:49.149Z,99.99
2018-09-06T23:02:49.096Z,99.99
2018-09-06T23:05:49.128Z,99.99
2018-09-06T23:08:49.041Z,99.99
2018-09-06T23:11:48.991Z,99.99
2018-09-06T23:14:48.966Z,99.99
2018-09-06T23:17:48.943Z,99.99
2018-09-06T23:20:48.892Z,99.99
2018-09-06T23:23:48.898Z,99.99
2018-09-06T23:26:48.820Z,99.99
2018-09-06T23:29:48.809Z,99.99
2018-09-06T23:32:48.782Z,99.99
2018-09-06T23:35:48.741Z,99.99
2018-09-06T23:38:48.672Z,99.99
2018-09-06T23:41:48.661Z,99.99
2018-09-06T23:44:48.631Z,99.99
2018-09-06T23:47:48.591Z,99.99
2018-09-06T23:50:48.555Z,99.99
2018-09-06T23:53:48.535Z,99.99
2018-09-06T23:56:48.498Z,99.99
2018-09-06T23:59:48.494Z,99.99
